Terminal Aerodrome Forecast
Issued by NWS Tampa Bay Area, FL

Home | Current Version | Previous Version | Text Only | Print | Product List | Glossary On
Versions: 1 2 3 4 5 6 7 8 9 10 11 12 13 14 15 16 17 18
743
FTUS42 KTBW 231732
TAFSRQ
TAF
KSRQ 231732Z 2318/2418 20015G22KT P6SM SCT020 BKN050
      TEMPO 2318/2320 BKN020
     FM232000 21016G25KT P6SM SCT050 SCT120 BKN200
     FM240100 21013KT P6SM FEW050 SCT120 BKN200
     FM241000 20014G20KT P6SM VCTS SCT025CB BKN050
     FM241500 20020G28KT 5SM -RA VCTS SCT030CB OVC050=

USA.gov is the U.S. government's official web portal to all federal, state and local government web resources and services.